Terminal Aerodrome Forecast
Issued by NWS Corpus Christi, TX

Home | Current Version | Previous Version | Text Only | Print | Product List | Glossary On
Versions: 1 2 3 4 5 6 7 8 9 10 11 12 13 14
000
FTUS44 KCRP 301100
TAFVCT
TAF
KVCT 301120Z 3012/3112 VRB04KT P6SM SCT015 BKN120
     FM301400 VRB05KT P6SM VCSH SCT025 SCT120
     FM301800 13009KT P6SM VCSH SCT040
     FM310400 13004KT P6SM FEW015 SCT120=

USA.gov is the U.S. government's official web portal to all federal, state and local government web resources and services.